createdAt,value
2023-04-16T00:00:39.778Z,4.90
2023-04-16T00:03:11.058Z,5.10
2023-04-16T00:05:42.212Z,4.90
2023-04-16T00:08:13.360Z,5.80
2023-04-16T00:10:44.543Z,5.20
2023-04-16T00:13:15.601Z,5.30
2023-04-16T00:15:46.607Z,4.70
2023-04-16T00:18:17.572Z,5.50
2023-04-16T00:20:48.885Z,5.10
2023-04-16T00:23:19.911Z,5.60
2023-04-16T00:25:50.884Z,5.00
2023-04-16T00:28:21.897Z,5.10
2023-04-16T00:30:53.042Z,5.50
2023-04-16T00:33:23.967Z,5.10
2023-04-16T00:35:55.022Z,5.40
2023-04-16T00:38:30.053Z,4.90
2023-04-16T00:41:01.150Z,5.00
2023-04-16T00:43:32.169Z,5.50
2023-04-16T00:46:06.199Z,5.10
2023-04-16T00:48:39.096Z,5.70
2023-04-16T00:51:11.727Z,4.80
2023-04-16T00:53:43.087Z,5.40
2023-04-16T00:56:14.937Z,5.60
2023-04-16T00:58:45.887Z,6.10
2023-04-16T01:01:17.419Z,5.50
2023-04-16T01:03:50.142Z,5.40
2023-04-16T01:06:21.764Z,4.80
2023-04-16T01:08:53.070Z,4.70
2023-04-16T01:11:24.207Z,4.70
2023-04-16T01:13:55.188Z,4.80
2023-04-16T01:16:27.063Z,5.60
2023-04-16T01:18:58.074Z,4.90
2023-04-16T01:21:29.156Z,5.00
2023-04-16T01:24:03.155Z,5.30
2023-04-16T01:26:34.320Z,5.00
2023-04-16T01:29:06.544Z,5.50
2023-04-16T01:31:37.635Z,6.00
2023-04-16T01:34:13.963Z,5.30
2023-04-16T01:36:45.713Z,5.60
2023-04-16T01:39:17.319Z,6.20
2023-04-16T01:41:48.867Z,5.30
2023-04-16T01:47:01.569Z,5.80
2023-04-16T01:49:32.488Z,6.30
2023-04-16T01:52:03.276Z,5.70
2023-04-16T01:54:34.009Z,6.10
2023-04-16T01:57:06.296Z,5.90
2023-04-16T01:59:37.269Z,6.10
2023-04-16T02:02:12.298Z,5.40
2023-04-16T02:04:44.416Z,4.60
2023-04-16T02:07:16.030Z,4.50
2023-04-16T02:09:46.782Z,4.60
2023-04-16T02:12:18.458Z,4.70
2023-04-16T02:14:51.558Z,4.50
2023-04-16T02:17:24.199Z,4.70
2023-04-16T02:20:08.368Z,4.90
2023-04-16T02:22:43.565Z,4.30
2023-04-16T02:25:16.824Z,4.30
2023-04-16T02:27:48.142Z,5.20
2023-04-16T02:30:40.036Z,4.10
2023-04-16T02:33:12.214Z,5.60
2023-04-16T02:35:45.796Z,4.60
2023-04-16T02:38:16.536Z,6.00
2023-04-16T02:40:48.399Z,5.60
2023-04-16T02:43:20.133Z,5.70
2023-04-16T02:45:51.405Z,5.00
2023-04-16T02:48:22.862Z,5.20
2023-04-16T02:50:53.606Z,5.70
2023-04-16T02:53:25.069Z,6.20
2023-04-16T02:55:56.722Z,5.80
2023-04-16T02:58:28.539Z,6.80
2023-04-16T03:00:59.307Z,6.90
2023-04-16T03:03:30.039Z,7.10
2023-04-16T03:06:00.787Z,6.10
2023-04-16T03:08:31.534Z,5.60
2023-04-16T03:11:02.475Z,6.80
2023-04-16T03:13:33.872Z,6.30
2023-04-16T03:16:04.639Z,6.80
2023-04-16T03:18:35.522Z,8.00
2023-04-16T03:21:07.439Z,6.70
2023-04-16T03:23:38.398Z,7.30
2023-04-16T03:26:09.223Z,9.30
2023-04-16T03:28:40.020Z,9.10
2023-04-16T03:31:11.537Z,7.60
2023-04-16T03:33:42.914Z,8.50
2023-04-16T03:36:13.936Z,8.20
2023-04-16T03:38:44.921Z,10.00
2023-04-16T03:41:16.331Z,8.20
2023-04-16T03:43:47.233Z,9.20
2023-04-16T03:46:17.964Z,8.90
2023-04-16T03:48:49.030Z,8.60
2023-04-16T03:51:20.094Z,9.30
2023-04-16T03:53:51.138Z,9.10
2023-04-16T03:56:21.968Z,10.40
2023-04-16T03:58:56.121Z,9.10
2023-04-16T04:01:26.906Z,9.90
2023-04-16T04:03:57.986Z,9.50
2023-04-16T04:06:29.220Z,9.00
2023-04-16T04:09:00.007Z,10.80
2023-04-16T04:11:30.948Z,9.50
2023-04-16T04:14:01.742Z,9.50
2023-04-16T04:16:33.060Z,8.40
2023-04-16T04:19:03.960Z,9.40
2023-04-16T04:21:35.104Z,8.70
2023-04-16T04:24:07.821Z,9.50
2023-04-16T04:26:38.739Z,11.10
2023-04-16T04:29:09.810Z,9.40
2023-04-16T04:31:41.055Z,9.60
2023-04-16T04:34:12.000Z,9.80
2023-04-16T04:36:42.825Z,9.40
2023-04-16T04:39:14.327Z,9.70
2023-04-16T04:41:46.745Z,9.90
2023-04-16T04:44:17.619Z,10.10
2023-04-16T04:46:48.390Z,9.60
2023-04-16T04:49:19.284Z,9.20
2023-04-16T04:51:50.966Z,9.70
2023-04-16T04:54:22.855Z,11.20
2023-04-16T04:56:54.125Z,10.00
2023-04-16T04:59:25.434Z,10.10
2023-04-16T05:01:56.447Z,9.70
2023-04-16T05:04:27.556Z,10.30
2023-04-16T05:06:58.373Z,9.10
2023-04-16T05:09:29.115Z,9.90
2023-04-16T05:11:59.922Z,10.20
2023-04-16T05:14:30.838Z,10.60
2023-04-16T05:17:02.413Z,10.60
2023-04-16T05:19:33.243Z,9.40
2023-04-16T05:22:04.203Z,8.60
2023-04-16T05:24:35.031Z,9.50
2023-04-16T05:27:05.834Z,9.20
2023-04-16T05:29:37.502Z,10.20
2023-04-16T05:32:08.408Z,9.10
2023-04-16T05:34:39.089Z,9.00
2023-04-16T05:37:09.897Z,9.70
2023-04-16T05:39:40.617Z,8.90
2023-04-16T05:42:11.438Z,9.90
2023-04-16T05:44:43.256Z,9.40
2023-04-16T05:47:13.953Z,10.80
2023-04-16T05:49:44.640Z,8.80
2023-04-16T05:52:15.481Z,10.00
2023-04-16T05:54:46.485Z,10.60
2023-04-16T05:57:17.486Z,10.20
2023-04-16T05:59:48.216Z,10.60
2023-04-16T06:02:44.854Z,9.20
2023-04-16T06:05:50.569Z,8.20
2023-04-16T06:08:28.641Z,9.20
2023-04-16T06:11:09.919Z,8.80
2023-04-16T06:13:41.782Z,9.00
2023-04-16T06:16:24.036Z,9.60
2023-04-16T06:18:55.130Z,9.30
2023-04-16T06:21:28.260Z,8.90
2023-04-16T06:23:59.393Z,10.60
2023-04-16T06:26:33.091Z,9.50
2023-04-16T06:29:06.315Z,8.90
2023-04-16T06:31:37.174Z,9.00
2023-04-16T06:34:07.987Z,9.20
2023-04-16T06:36:39.352Z,9.40
2023-04-16T06:39:10.347Z,9.60
2023-04-16T06:41:41.671Z,9.60
2023-04-16T06:44:12.535Z,9.80
2023-04-16T06:46:43.356Z,9.70
2023-04-16T06:49:14.107Z,8.80
2023-04-16T06:51:48.479Z,8.60
2023-04-16T06:54:19.854Z,10.00
2023-04-16T06:56:50.943Z,9.70
2023-04-16T06:59:21.718Z,8.90
2023-04-16T07:01:52.791Z,9.00
2023-04-16T07:04:24.366Z,8.80
2023-04-16T07:06:56.158Z,9.60
2023-04-16T07:09:38.850Z,10.10
2023-04-16T07:12:16.878Z,9.80
2023-04-16T07:14:47.882Z,9.30
2023-04-16T07:17:18.942Z,10.00
2023-04-16T07:19:49.728Z,9.30
2023-04-16T07:22:32.665Z,9.60
2023-04-16T07:25:07.509Z,9.60
2023-04-16T07:27:38.650Z,9.70
2023-04-16T07:30:12.126Z,9.20
2023-04-16T07:32:42.974Z,9.40
2023-04-16T07:35:16.885Z,9.30
2023-04-16T07:37:47.630Z,8.90
2023-04-16T07:40:18.692Z,9.00
2023-04-16T07:42:49.456Z,8.10
2023-04-16T07:45:20.886Z,9.50
2023-04-16T07:47:51.731Z,8.20
2023-04-16T07:50:22.531Z,9.70
2023-04-16T07:52:53.915Z,9.50
2023-04-16T07:55:25.010Z,10.30
2023-04-16T07:57:57.955Z,8.80
2023-04-16T08:00:28.679Z,8.50
2023-04-16T08:03:00.749Z,9.00
2023-04-16T08:05:31.898Z,9.30
2023-04-16T08:08:03.986Z,9.50
2023-04-16T08:10:35.733Z,28.10
2023-04-16T08:13:08.703Z,11.50
2023-04-16T08:15:39.548Z,8.30
2023-04-16T08:18:13.020Z,8.90
2023-04-16T08:20:44.077Z,8.90
2023-04-16T08:23:14.827Z,9.60
2023-04-16T08:25:56.589Z,8.90
2023-04-16T08:28:27.232Z,9.50
2023-04-16T08:30:58.921Z,10.30
2023-04-16T08:33:29.719Z,9.70
2023-04-16T08:36:00.567Z,9.40
2023-04-16T08:38:32.827Z,9.90
2023-04-16T08:41:07.291Z,10.20
2023-04-16T08:43:46.010Z,9.40
2023-04-16T08:46:18.672Z,9.00
2023-04-16T08:48:55.116Z,9.80
2023-04-16T08:51:27.445Z,8.70
2023-04-16T08:54:05.079Z,9.20
2023-04-16T08:56:42.906Z,9.70
2023-04-16T08:59:13.918Z,9.60
2023-04-16T09:01:46.956Z,9.80
2023-04-16T09:04:18.801Z,10.00
2023-04-16T09:06:51.938Z,9.80
2023-04-16T09:09:23.982Z,10.70
2023-04-16T09:11:55.965Z,10.70
2023-04-16T09:14:28.046Z,10.60
2023-04-16T09:17:01.448Z,10.90
2023-04-16T09:19:32.185Z,9.60
2023-04-16T09:22:03.059Z,9.70
2023-04-16T09:24:35.568Z,8.90
2023-04-16T09:27:06.668Z,8.90
2023-04-16T09:29:39.366Z,8.00
2023-04-16T09:32:12.612Z,9.20
2023-04-16T09:35:00.788Z,11.50
2023-04-16T09:37:32.455Z,8.40
2023-04-16T09:40:04.752Z,8.90
2023-04-16T09:42:37.016Z,7.80
2023-04-16T09:45:09.328Z,8.00
2023-04-16T09:47:44.716Z,8.00
2023-04-16T09:50:20.041Z,7.40
2023-04-16T09:53:04.864Z,7.10
2023-04-16T09:55:35.555Z,7.60
2023-04-16T09:58:06.269Z,7.80
2023-04-16T10:00:43.706Z,7.90
2023-04-16T10:03:14.897Z,8.10
2023-04-16T10:05:45.774Z,8.10
2023-04-16T10:08:23.014Z,7.80
2023-04-16T10:11:00.021Z,8.10
2023-04-16T10:13:35.105Z,8.10
2023-04-16T10:16:09.073Z,14.20
2023-04-16T10:22:32.683Z,7.10
2023-04-16T10:25:07.697Z,7.90
2023-04-16T10:27:42.247Z,7.50
2023-04-16T10:30:18.171Z,8.30
2023-04-16T10:33:10.388Z,7.40
2023-04-16T10:37:36.542Z,7.90
2023-04-16T10:39:29.218Z,8.00
2023-04-16T10:42:12.939Z,7.90
2023-04-16T10:44:45.651Z,7.90
2023-04-16T10:47:30.637Z,8.10
2023-04-16T10:50:20.671Z,7.70
2023-04-16T10:55:21.353Z,7.60
2023-04-16T10:57:54.112Z,8.60
2023-04-16T11:00:26.377Z,7.80
2023-04-16T11:02:57.391Z,7.10
2023-04-16T11:05:47.987Z,8.50
2023-04-16T11:08:18.985Z,7.40
2023-04-16T11:10:50.429Z,10.40
2023-04-16T11:13:22.783Z,7.70
2023-04-16T11:15:57.781Z,7.30
2023-04-16T11:21:10.877Z,6.80
2023-04-16T11:23:56.849Z,6.60
2023-04-16T11:26:32.943Z,7.20
2023-04-16T11:29:14.706Z,6.80
2023-04-16T11:31:51.011Z,7.50
2023-04-16T11:34:22.480Z,6.70
2023-04-16T11:36:54.221Z,7.10
2023-04-16T11:39:31.467Z,7.80
2023-04-16T11:42:04.532Z,7.20
2023-04-16T11:44:35.289Z,7.30
2023-04-16T11:47:08.639Z,7.40
2023-04-16T11:49:39.358Z,7.40
2023-04-16T11:52:10.642Z,7.20
2023-04-16T11:54:53.218Z,6.90
2023-04-16T11:57:32.171Z,7.20
2023-04-16T12:00:07.437Z,6.70
2023-04-16T12:02:47.999Z,7.10
2023-04-16T12:05:48.032Z,6.70
2023-04-16T12:08:34.072Z,7.30
2023-04-16T12:11:09.625Z,7.20
2023-04-16T12:14:06.752Z,7.10
2023-04-16T12:16:44.235Z,7.10
2023-04-16T12:19:23.758Z,7.10
2023-04-16T12:21:55.215Z,6.80
2023-04-16T12:24:53.892Z,7.30
2023-04-16T12:27:28.896Z,7.00
2023-04-16T12:30:18.286Z,6.60
2023-04-16T12:33:02.163Z,6.70
2023-04-16T12:35:34.804Z,6.90
2023-04-16T12:38:16.108Z,6.60
2023-04-16T12:40:58.533Z,7.00
2023-04-16T12:43:34.222Z,9.40
2023-04-16T12:46:11.394Z,8.00
2023-04-16T12:48:54.930Z,7.10
2023-04-16T12:51:31.994Z,7.20
2023-04-16T12:54:03.443Z,7.00
2023-04-16T12:56:39.568Z,7.10
2023-04-16T12:59:15.201Z,6.90
2023-04-16T13:12:29.229Z,7.80
2023-04-16T13:14:59.937Z,6.90
2023-04-16T13:17:31.413Z,6.90
2023-04-16T13:20:17.868Z,6.30
2023-04-16T13:22:51.856Z,6.80
2023-04-16T13:25:25.447Z,7.00
2023-04-16T13:28:02.648Z,6.80
2023-04-16T13:30:36.912Z,7.20
2023-04-16T13:33:09.368Z,6.60
2023-04-16T13:35:48.316Z,5.80
2023-04-16T13:38:24.239Z,9.10
2023-04-16T13:40:57.206Z,8.70
2023-04-16T13:43:30.624Z,7.20
2023-04-16T13:46:14.457Z,6.60
2023-04-16T13:48:55.858Z,6.50
2023-04-16T13:51:38.399Z,7.10
2023-04-16T13:54:13.349Z,6.50
2023-04-16T13:56:48.026Z,6.30
2023-04-16T13:59:37.235Z,7.00
2023-04-16T14:02:10.312Z,6.40
2023-04-16T14:04:55.166Z,6.50
2023-04-16T14:07:27.860Z,6.60
2023-04-16T14:10:03.443Z,7.10
2023-04-16T14:12:38.229Z,6.70
2023-04-16T14:15:17.139Z,6.80
2023-04-16T14:17:53.513Z,6.40
2023-04-16T14:20:25.909Z,6.00
2023-04-16T14:22:58.452Z,6.00
2023-04-16T14:25:41.976Z,6.10
2023-04-16T14:28:22.893Z,6.20
2023-04-16T14:30:53.928Z,6.10
2023-04-16T14:36:31.307Z,6.10
2023-04-16T14:39:05.010Z,5.90
2023-04-16T14:41:35.980Z,6.10
2023-04-16T14:44:16.130Z,6.30
2023-04-16T14:47:03.166Z,6.40
2023-04-16T14:49:34.631Z,5.90
2023-04-16T14:52:07.235Z,6.50
2023-04-16T14:54:38.991Z,6.20
2023-04-16T14:57:09.867Z,5.80
2023-04-16T14:59:41.491Z,5.70
2023-04-16T15:02:12.506Z,6.20
2023-04-16T15:04:43.913Z,6.60
2023-04-16T15:07:14.828Z,6.30
2023-04-16T15:09:45.735Z,6.30
2023-04-16T15:12:19.091Z,6.60
2023-04-16T15:14:50.540Z,6.00
2023-04-16T15:17:22.081Z,6.70
2023-04-16T15:19:53.780Z,6.50
2023-04-16T15:22:29.933Z,6.20
2023-04-16T15:25:07.492Z,6.40
2023-04-16T15:27:38.771Z,6.80
2023-04-16T15:30:12.674Z,6.70
2023-04-16T15:32:44.589Z,6.30
2023-04-16T15:35:16.140Z,6.70
2023-04-16T15:37:47.014Z,6.50
2023-04-16T15:40:19.068Z,6.60
2023-04-16T15:42:50.047Z,6.70
2023-04-16T15:45:21.376Z,6.70
2023-04-16T15:47:52.450Z,6.10
2023-04-16T15:50:23.336Z,6.50
2023-04-16T15:52:54.348Z,6.60
2023-04-16T15:55:26.329Z,6.30
2023-04-16T15:57:57.343Z,6.40
2023-04-16T16:00:28.367Z,6.20
2023-04-16T16:02:59.568Z,6.20
2023-04-16T16:05:30.648Z,7.00
2023-04-16T16:08:01.859Z,6.20
2023-04-16T16:10:35.270Z,6.90
2023-04-16T16:13:11.052Z,6.80
2023-04-16T16:15:48.176Z,8.00
2023-04-16T16:18:19.053Z,7.00
2023-04-16T16:20:57.439Z,7.30
2023-04-16T16:23:28.674Z,7.20
2023-04-16T16:26:06.165Z,7.20
2023-04-16T16:28:38.169Z,7.20
2023-04-16T16:31:09.277Z,8.30
2023-04-16T16:33:40.874Z,7.60
2023-04-16T16:36:14.332Z,8.40
2023-04-16T16:38:47.530Z,8.20
2023-04-16T16:41:18.459Z,7.80
2023-04-16T16:43:50.354Z,7.50
2023-04-16T16:46:21.744Z,8.10
2023-04-16T16:48:53.141Z,9.00
2023-04-16T16:51:23.889Z,7.80
2023-04-16T16:53:55.170Z,7.90
2023-04-16T16:56:26.048Z,8.30
2023-04-16T16:58:57.772Z,8.50
2023-04-16T17:01:31.484Z,8.30
2023-04-16T17:04:02.885Z,8.50
2023-04-16T17:06:33.943Z,8.30
2023-04-16T17:09:04.861Z,7.80
2023-04-16T17:11:40.227Z,8.60
2023-04-16T17:14:11.051Z,8.00
2023-04-16T17:16:42.144Z,7.90
2023-04-16T17:19:13.105Z,8.20
2023-04-16T17:21:46.766Z,9.80
2023-04-16T17:24:18.082Z,9.70
2023-04-16T17:26:51.311Z,9.40
2023-04-16T17:29:26.146Z,11.30
2023-04-16T17:31:57.514Z,9.90
2023-04-16T17:34:28.387Z,9.00
2023-04-16T17:36:59.182Z,8.70
2023-04-16T17:39:29.896Z,10.00
2023-04-16T17:42:03.993Z,10.00
2023-04-16T17:44:34.861Z,9.10
2023-04-16T17:47:07.460Z,9.20
2023-04-16T17:49:39.707Z,9.10
2023-04-16T17:52:14.941Z,9.20
2023-04-16T17:54:48.630Z,8.70
2023-04-16T17:57:22.449Z,9.30
2023-04-16T17:59:53.765Z,19.10
2023-04-16T18:02:24.893Z,11.40
2023-04-16T18:04:57.744Z,10.90
2023-04-16T18:07:29.353Z,9.20
2023-04-16T18:10:00.350Z,10.10
2023-04-16T18:12:31.554Z,9.40
2023-04-16T18:15:02.482Z,10.40
2023-04-16T18:17:33.487Z,10.10
2023-04-16T18:20:17.681Z,10.30
2023-04-16T18:22:48.712Z,10.50
2023-04-16T18:25:32.200Z,11.10
2023-04-16T18:28:06.393Z,9.90
2023-04-16T18:30:40.524Z,11.40
2023-04-16T18:33:39.008Z,11.40
2023-04-16T18:36:03.957Z,9.80
2023-04-16T18:38:35.052Z,10.60
2023-04-16T18:41:06.382Z,10.40
2023-04-16T18:43:37.422Z,10.90
2023-04-16T18:46:08.641Z,10.70
2023-04-16T18:48:39.722Z,11.40
2023-04-16T18:51:12.935Z,11.00
2023-04-16T18:53:45.934Z,11.00
2023-04-16T18:56:17.125Z,10.50
2023-04-16T18:58:49.424Z,10.50
2023-04-16T19:01:20.898Z,10.40
2023-04-16T19:03:53.624Z,10.90
2023-04-16T19:06:27.848Z,11.00
2023-04-16T19:08:59.197Z,11.00
2023-04-16T19:11:29.994Z,11.00
2023-04-16T19:14:03.268Z,11.10
2023-04-16T19:16:34.156Z,11.40
2023-04-16T19:19:05.409Z,10.10
2023-04-16T19:21:43.419Z,11.30
2023-04-16T19:24:14.831Z,10.40
2023-04-16T19:26:46.139Z,11.50
2023-04-16T19:29:18.122Z,11.20
2023-04-16T19:31:49.247Z,11.00
2023-04-16T19:34:20.840Z,12.70
2023-04-16T19:36:52.086Z,10.90
2023-04-16T19:39:23.155Z,11.40
2023-04-16T19:41:54.432Z,11.70
2023-04-16T19:44:25.836Z,13.20
2023-04-16T19:46:56.988Z,12.20
2023-04-16T19:49:35.914Z,12.60
2023-04-16T19:52:07.280Z,12.20
2023-04-16T19:54:38.594Z,12.70
2023-04-16T19:57:09.633Z,12.60
2023-04-16T19:59:40.737Z,13.70
2023-04-16T20:02:11.851Z,13.60
2023-04-16T20:04:43.422Z,13.20
2023-04-16T20:07:14.517Z,13.40
2023-04-16T20:09:45.824Z,13.00
2023-04-16T20:12:16.800Z,12.40
2023-04-16T20:14:50.411Z,13.40
2023-04-16T20:17:21.743Z,12.90
2023-04-16T20:19:53.024Z,15.60
2023-04-16T20:22:24.141Z,14.00
2023-04-16T20:24:56.518Z,13.90
2023-04-16T20:27:27.647Z,14.10
2023-04-16T20:29:58.866Z,15.10
2023-04-16T20:32:31.038Z,14.50
2023-04-16T20:35:04.295Z,14.00
2023-04-16T20:37:38.165Z,12.50
2023-04-16T20:40:14.052Z,13.60
2023-04-16T20:42:52.291Z,15.70
2023-04-16T20:45:24.315Z,15.30
2023-04-16T20:47:55.881Z,14.80
2023-04-16T20:50:26.904Z,15.20
2023-04-16T20:52:57.982Z,15.10
2023-04-16T20:55:29.144Z,14.60
2023-04-16T20:58:00.250Z,15.70
2023-04-16T21:00:31.909Z,14.10
2023-04-16T21:03:02.951Z,14.50
2023-04-16T21:05:34.457Z,15.50
2023-04-16T21:08:05.509Z,14.80
2023-04-16T21:10:36.641Z,13.30
2023-04-16T21:13:07.647Z,13.70
2023-04-16T21:15:40.028Z,15.10
2023-04-16T21:18:11.837Z,14.20
2023-04-16T21:20:43.240Z,15.20
2023-04-16T21:23:20.416Z,14.30
2023-04-16T21:25:51.516Z,15.70
2023-04-16T21:28:22.410Z,16.10
2023-04-16T21:30:55.252Z,15.10
2023-04-16T21:33:26.060Z,15.80
2023-04-16T21:35:57.500Z,14.10
2023-04-16T21:38:28.422Z,15.40
2023-04-16T21:40:59.254Z,15.50
2023-04-16T21:43:32.282Z,13.90
2023-04-16T21:46:03.944Z,15.80
2023-04-16T21:48:34.646Z,16.00
2023-04-16T21:51:08.329Z,14.70
2023-04-16T21:53:39.121Z,14.90
2023-04-16T21:56:10.478Z,15.00
2023-04-16T21:58:41.153Z,14.60
2023-04-16T22:01:11.851Z,14.10
2023-04-16T22:03:42.753Z,15.30
2023-04-16T22:06:14.319Z,14.60
2023-04-16T22:08:45.160Z,15.50
2023-04-16T22:11:15.865Z,16.20
2023-04-16T22:13:49.536Z,15.20
2023-04-16T22:16:20.403Z,15.30
2023-04-16T22:18:51.324Z,16.20
2023-04-16T22:21:22.004Z,15.90
2023-04-16T22:23:53.869Z,15.30
2023-04-16T22:26:24.576Z,16.30
2023-04-16T22:28:55.328Z,16.30
2023-04-16T22:31:26.056Z,16.20
2023-04-16T22:33:56.770Z,16.10
2023-04-16T22:36:27.611Z,16.00
2023-04-16T22:38:58.286Z,16.10
2023-04-16T22:41:28.955Z,17.60
2023-04-16T22:43:59.609Z,16.20
2023-04-16T22:46:31.015Z,16.60
2023-04-16T22:49:01.903Z,16.10
2023-04-16T22:51:32.860Z,15.90
2023-04-16T22:54:03.570Z,15.70
2023-04-16T22:56:34.232Z,16.10
2023-04-16T22:59:04.940Z,17.90
2023-04-16T23:01:36.226Z,16.10
2023-04-16T23:04:07.154Z,17.00
2023-04-16T23:06:37.873Z,15.80
2023-04-16T23:09:08.649Z,17.00
2023-04-16T23:11:39.390Z,16.90
2023-04-16T23:14:10.052Z,16.90
2023-04-16T23:16:40.894Z,16.70
2023-04-16T23:19:14.978Z,16.20
2023-04-16T23:21:45.750Z,16.60
2023-04-16T23:24:17.285Z,16.70
2023-04-16T23:26:48.045Z,16.70
2023-04-16T23:29:18.729Z,16.50
2023-04-16T23:31:49.498Z,14.30
2023-04-16T23:34:20.399Z,15.70
2023-04-16T23:36:51.048Z,16.90
2023-04-16T23:39:21.773Z,14.80
2023-04-16T23:41:52.444Z,15.50
2023-04-16T23:44:23.152Z,16.30
2023-04-16T23:46:53.915Z,16.20
2023-04-16T23:49:24.645Z,16.10
2023-04-16T23:51:55.320Z,15.70
2023-04-16T23:54:25.990Z,18.10
2023-04-16T23:56:57.264Z,16.90
2023-04-16T23:59:28.041Z,16.90
